ANE25DS LFBO-LEMD
Flight info
| Callsign | ANE25DS |
|---|---|
| Flight time | 1h 1m |
| Altitude | 31000 |
| Route | GAUDE DCT TIVLI/N0429F390 DCT ELSAP DCT ZAR DCT KONKE DCT TERSA |
| Aircraft | CRJX/M-SDFGIRWY/S |
Departure
| Time | 2026-05-06 06:16 |
|---|---|
| Airport | Toulouse-Blagnac Airport (LFBO) |
Arrival
| Time | 2026-05-06 07:18 |
|---|---|
| Airport | Adolfo Suárez Madrid–Barajas Airport (LEMD) |
| Time | Latitude | Longitude | Altitude | Speed | Heading |
|---|---|---|---|---|---|
| 2026-05-06 06:04 | 43.62828 | 1.37619 | 492 ft | 0 kts | 52° |
| 2026-05-06 06:09 | 43.62828 | 1.37618 | 484 ft | 1 kts | 52° |
| 2026-05-06 06:09 | 43.62814 | 1.37595 | 482 ft | 4 kts | 55° |
| 2026-05-06 06:09 | 43.62808 | 1.37567 | 484 ft | 4 kts | 105° |
| 2026-05-06 06:10 | 43.62823 | 1.37542 | 486 ft | 4 kts | 142° |
| 2026-05-06 06:10 | 43.62833 | 1.37531 | 486 ft | 1 kts | 142° |
| 2026-05-06 06:10 | 43.62834 | 1.37530 | 486 ft | 0 kts | 142° |
| 2026-05-06 06:12 | 43.62833 | 1.37531 | 486 ft | 1 kts | 142° |
| 2026-05-06 06:12 | 43.62817 | 1.37549 | 482 ft | 6 kts | 141° |
| 2026-05-06 06:13 | 43.62764 | 1.37549 | 490 ft | 11 kts | 224° |
| 2026-05-06 06:13 | 43.62701 | 1.37474 | 487 ft | 15 kts | 176° |
| 2026-05-06 06:13 | 43.62602 | 1.37412 | 487 ft | 20 kts | 234° |
| 2026-05-06 06:13 | 43.62471 | 1.37397 | 488 ft | 23 kts | 147° |
| 2026-05-06 06:14 | 43.62336 | 1.37532 | 492 ft | 24 kts | 143° |
| 2026-05-06 06:14 | 43.62207 | 1.37662 | 483 ft | 20 kts | 144° |
| 2026-05-06 06:14 | 43.62093 | 1.37780 | 483 ft | 21 kts | 142° |
| 2026-05-06 06:14 | 43.61972 | 1.37911 | 488 ft | 23 kts | 142° |
| 2026-05-06 06:15 | 43.61842 | 1.38048 | 484 ft | 24 kts | 144° |
| 2026-05-06 06:15 | 43.61720 | 1.38164 | 490 ft | 16 kts | 160° |
| 2026-05-06 06:15 | 43.61625 | 1.38107 | 487 ft | 17 kts | 235° |
| 2026-05-06 06:15 | 43.61627 | 1.37959 | 484 ft | 18 kts | 320° |
| 2026-05-06 06:16 | 43.61874 | 1.37701 | 485 ft | 81 kts | 323° |
| 2026-05-06 06:16 | 43.62512 | 1.37038 | 488 ft | 146 kts | 323° |
| 2026-05-06 06:16 | 43.63427 | 1.36094 | 793 ft | 171 kts | 324° |
| 2026-05-06 06:16 | 43.64428 | 1.35131 | 1390 ft | 180 kts | 321° |
| 2026-05-06 06:17 | 43.65109 | 1.34414 | 1815 ft | 191 kts | 317° |
| 2026-05-06 06:17 | 43.66526 | 1.32784 | 2713 ft | 208 kts | 316° |
| 2026-05-06 06:17 | 43.67665 | 1.31441 | 3552 ft | 214 kts | 316° |
| 2026-05-06 06:17 | 43.68722 | 1.29980 | 4616 ft | 217 kts | 304° |
| 2026-05-06 06:18 | 43.69154 | 1.28035 | 5541 ft | 217 kts | 263° |
| 2026-05-06 06:18 | 43.68454 | 1.26205 | 6505 ft | 226 kts | 222° |
| 2026-05-06 06:18 | 43.67522 | 1.25537 | 7093 ft | 235 kts | 196° |
| 2026-05-06 06:18 | 43.65859 | 1.25663 | 7953 ft | 247 kts | 169° |
| 2026-05-06 06:19 | 43.64155 | 1.25987 | 8762 ft | 248 kts | 187° |
| 2026-05-06 06:19 | 43.62537 | 1.25294 | 9609 ft | 244 kts | 212° |
| 2026-05-06 06:19 | 43.61133 | 1.23979 | 10418 ft | 244 kts | 220° |
| 2026-05-06 06:19 | 43.59786 | 1.22532 | 11188 ft | 247 kts | 221° |
| 2026-05-06 06:20 | 43.58421 | 1.21070 | 11927 ft | 250 kts | 221° |
| 2026-05-06 06:20 | 43.57016 | 1.19623 | 12679 ft | 254 kts | 220° |
| 2026-05-06 06:20 | 43.55570 | 1.18191 | 13426 ft | 257 kts | 220° |
| 2026-05-06 06:20 | 43.54106 | 1.16741 | 14121 ft | 260 kts | 220° |
| 2026-05-06 06:21 | 43.52630 | 1.15281 | 14777 ft | 263 kts | 220° |
| 2026-05-06 06:21 | 43.51148 | 1.13820 | 15381 ft | 267 kts | 220° |
| 2026-05-06 06:21 | 43.49635 | 1.12327 | 15995 ft | 269 kts | 220° |
| 2026-05-06 06:21 | 43.48104 | 1.10818 | 16586 ft | 272 kts | 220° |
| 2026-05-06 06:22 | 43.46558 | 1.09289 | 17188 ft | 274 kts | 220° |
| 2026-05-06 06:22 | 43.44994 | 1.07751 | 17787 ft | 277 kts | 220° |
| 2026-05-06 06:22 | 43.43421 | 1.06201 | 18345 ft | 279 kts | 220° |
| 2026-05-06 06:22 | 43.41835 | 1.04639 | 18842 ft | 280 kts | 220° |
| 2026-05-06 06:23 | 43.40242 | 1.03074 | 19341 ft | 282 kts | 220° |
| 2026-05-06 06:23 | 43.38658 | 1.01522 | 19820 ft | 285 kts | 220° |
| 2026-05-06 06:23 | 43.37036 | 0.99929 | 20300 ft | 286 kts | 220° |
| 2026-05-06 06:23 | 43.35405 | 0.98325 | 20764 ft | 289 kts | 220° |
| 2026-05-06 06:24 | 43.33765 | 0.96720 | 21229 ft | 291 kts | 220° |
| 2026-05-06 06:24 | 43.32112 | 0.95097 | 21679 ft | 293 kts | 220° |
| 2026-05-06 06:24 | 43.30451 | 0.93465 | 22130 ft | 295 kts | 220° |
| 2026-05-06 06:24 | 43.28779 | 0.91819 | 22557 ft | 297 kts | 220° |
| 2026-05-06 06:25 | 43.27117 | 0.90185 | 22963 ft | 299 kts | 220° |
| 2026-05-06 06:25 | 43.25424 | 0.88515 | 23382 ft | 301 kts | 221° |
| 2026-05-06 06:25 | 43.22001 | 0.85149 | 24128 ft | 302 kts | 220° |
| 2026-05-06 06:26 | 43.20291 | 0.83473 | 24518 ft | 302 kts | 220° |
| 2026-05-06 06:26 | 43.18582 | 0.81801 | 24909 ft | 301 kts | 220° |
| 2026-05-06 06:26 | 43.16879 | 0.80128 | 25295 ft | 301 kts | 220° |
| 2026-05-06 06:26 | 43.15179 | 0.78459 | 25676 ft | 301 kts | 220° |
| 2026-05-06 06:27 | 43.13477 | 0.76798 | 26040 ft | 300 kts | 220° |
| 2026-05-06 06:27 | 43.11775 | 0.75129 | 26286 ft | 303 kts | 220° |
| 2026-05-06 06:27 | 43.10053 | 0.73445 | 26591 ft | 304 kts | 220° |
| 2026-05-06 06:27 | 43.08336 | 0.71767 | 26886 ft | 304 kts | 220° |
| 2026-05-06 06:28 | 43.06637 | 0.70106 | 27185 ft | 304 kts | 220° |
| 2026-05-06 06:28 | 43.04896 | 0.68410 | 27475 ft | 303 kts | 221° |
| 2026-05-06 06:28 | 43.03200 | 0.66756 | 27739 ft | 303 kts | 221° |
| 2026-05-06 06:28 | 43.01577 | 0.64942 | 27938 ft | 296 kts | 236° |
| 2026-05-06 06:29 | 43.00507 | 0.62605 | 28289 ft | 289 kts | 244° |
| 2026-05-06 06:29 | 42.99577 | 0.60163 | 28472 ft | 289 kts | 246° |
| 2026-05-06 06:29 | 42.98828 | 0.57636 | 28719 ft | 287 kts | 254° |
| 2026-05-06 06:29 | 42.98349 | 0.54992 | 28815 ft | 287 kts | 258° |
| 2026-05-06 06:30 | 42.97969 | 0.52290 | 28814 ft | 290 kts | 258° |
| 2026-05-06 06:30 | 42.97546 | 0.49564 | 28769 ft | 296 kts | 257° |
| 2026-05-06 06:30 | 42.97055 | 0.46864 | 28808 ft | 299 kts | 256° |
| 2026-05-06 06:31 | 42.96049 | 0.41292 | 28958 ft | 306 kts | 256° |
| 2026-05-06 06:31 | 42.95028 | 0.35563 | 28966 ft | 315 kts | 256° |
| 2026-05-06 06:32 | 42.93980 | 0.29663 | 28976 ft | 323 kts | 257° |
| 2026-05-06 06:32 | 42.92893 | 0.23614 | 28956 ft | 332 kts | 257° |
| 2026-05-06 06:33 | 42.91782 | 0.17422 | 28939 ft | 339 kts | 257° |
| 2026-05-06 06:33 | 42.90623 | 0.11168 | 28991 ft | 346 kts | 255° |
| 2026-05-06 06:34 | 42.89399 | 0.04761 | 28992 ft | 352 kts | 256° |
| 2026-05-06 06:34 | 42.88202 | -0.01797 | 29004 ft | 359 kts | 256° |
| 2026-05-06 06:35 | 42.86982 | -0.08448 | 28966 ft | 364 kts | 256° |
| 2026-05-06 06:35 | 42.85743 | -0.15196 | 29025 ft | 370 kts | 256° |
| 2026-05-06 06:36 | 42.84480 | -0.22060 | 29004 ft | 375 kts | 256° |
| 2026-05-06 06:36 | 42.83197 | -0.28967 | 28976 ft | 380 kts | 256° |
| 2026-05-06 06:37 | 42.81845 | -0.35972 | 28981 ft | 384 kts | 250° |
| 2026-05-06 06:37 | 42.80457 | -0.39091 | 29008 ft | 391 kts | 231° |
| 2026-05-06 06:37 | 42.78483 | -0.41668 | 29006 ft | 395 kts | 225° |
| 2026-05-06 06:38 | 42.74235 | -0.46492 | 29016 ft | 400 kts | 222° |
| 2026-05-06 06:38 | 42.71930 | -0.48657 | 29001 ft | 408 kts | 211° |
| 2026-05-06 06:38 | 42.69241 | -0.50034 | 29037 ft | 416 kts | 203° |
| 2026-05-06 06:39 | 42.63742 | -0.52417 | 29020 ft | 418 kts | 205° |
| 2026-05-06 06:39 | 42.58325 | -0.55263 | 28988 ft | 418 kts | 207° |
| 2026-05-06 06:40 | 42.52899 | -0.58166 | 28993 ft | 419 kts | 206° |
| 2026-05-06 06:40 | 42.47439 | -0.61007 | 28989 ft | 420 kts | 206° |
| 2026-05-06 06:41 | 42.41973 | -0.63856 | 28998 ft | 421 kts | 206° |
| 2026-05-06 06:41 | 42.36532 | -0.66690 | 29002 ft | 422 kts | 206° |
| 2026-05-06 06:42 | 42.31044 | -0.69547 | 29003 ft | 422 kts | 207° |
| 2026-05-06 06:42 | 42.25553 | -0.72398 | 29001 ft | 423 kts | 206° |
| 2026-05-06 06:43 | 42.20055 | -0.75242 | 28996 ft | 423 kts | 206° |
| 2026-05-06 06:43 | 42.14551 | -0.78087 | 28986 ft | 423 kts | 206° |
| 2026-05-06 06:44 | 42.09047 | -0.80932 | 28998 ft | 423 kts | 206° |
| 2026-05-06 06:44 | 42.03588 | -0.83745 | 28997 ft | 423 kts | 206° |
| 2026-05-06 06:45 | 41.98087 | -0.86570 | 28973 ft | 423 kts | 206° |
| 2026-05-06 06:45 | 41.92583 | -0.89391 | 28995 ft | 423 kts | 206° |
| 2026-05-06 06:46 | 41.87089 | -0.92209 | 29005 ft | 423 kts | 206° |
| 2026-05-06 06:46 | 41.81586 | -0.95023 | 29014 ft | 423 kts | 206° |
| 2026-05-06 06:47 | 41.76077 | -0.97831 | 28984 ft | 423 kts | 206° |
| 2026-05-06 06:47 | 41.70568 | -1.00632 | 29017 ft | 422 kts | 206° |
| 2026-05-06 06:48 | 41.65389 | -1.04084 | 29019 ft | 411 kts | 219° |
| 2026-05-06 06:48 | 41.60919 | -1.08722 | 29019 ft | 407 kts | 226° |
| 2026-05-06 06:49 | 41.56795 | -1.13906 | 29020 ft | 406 kts | 227° |
| 2026-05-06 06:49 | 41.52627 | -1.19021 | 29016 ft | 407 kts | 226° |
| 2026-05-06 06:50 | 41.48416 | -1.24088 | 29024 ft | 407 kts | 226° |
| 2026-05-06 06:50 | 41.44199 | -1.29149 | 29019 ft | 408 kts | 226° |
| 2026-05-06 06:51 | 41.40008 | -1.34174 | 29019 ft | 408 kts | 226° |
| 2026-05-06 06:51 | 41.35786 | -1.39224 | 29016 ft | 408 kts | 226° |
| 2026-05-06 06:52 | 41.31556 | -1.44270 | 29007 ft | 407 kts | 226° |
| 2026-05-06 06:52 | 41.27339 | -1.49301 | 29026 ft | 407 kts | 226° |
| 2026-05-06 06:53 | 41.23111 | -1.54328 | 29029 ft | 408 kts | 226° |
| 2026-05-06 06:53 | 41.18876 | -1.59360 | 29029 ft | 409 kts | 226° |
| 2026-05-06 06:54 | 41.14663 | -1.64358 | 29029 ft | 409 kts | 226° |
| 2026-05-06 06:54 | 41.10415 | -1.69384 | 29012 ft | 411 kts | 225° |
| 2026-05-06 06:55 | 41.06142 | -1.74425 | 28440 ft | 410 kts | 226° |
| 2026-05-06 06:55 | 41.04023 | -1.76935 | 28014 ft | 407 kts | 226° |
| 2026-05-06 06:55 | 41.01913 | -1.79422 | 27504 ft | 405 kts | 225° |
| 2026-05-06 06:55 | 40.99811 | -1.81889 | 27047 ft | 403 kts | 225° |
| 2026-05-06 06:56 | 40.97719 | -1.84349 | 26626 ft | 400 kts | 225° |
| 2026-05-06 06:56 | 40.95636 | -1.86799 | 26215 ft | 398 kts | 225° |
| 2026-05-06 06:56 | 40.93593 | -1.89193 | 25813 ft | 396 kts | 225° |
| 2026-05-06 06:56 | 40.91538 | -1.91607 | 25401 ft | 395 kts | 225° |
| 2026-05-06 06:57 | 40.89479 | -1.94013 | 24987 ft | 394 kts | 225° |
| 2026-05-06 06:57 | 40.87437 | -1.96409 | 24679 ft | 391 kts | 225° |
| 2026-05-06 06:57 | 40.85406 | -1.98784 | 24346 ft | 389 kts | 225° |
| 2026-05-06 06:57 | 40.83381 | -2.01143 | 24020 ft | 387 kts | 225° |
| 2026-05-06 06:58 | 40.81368 | -2.03500 | 23605 ft | 386 kts | 225° |
| 2026-05-06 06:58 | 40.79364 | -2.05841 | 23076 ft | 384 kts | 225° |
| 2026-05-06 06:58 | 40.77367 | -2.08166 | 22553 ft | 382 kts | 225° |
| 2026-05-06 06:58 | 40.75420 | -2.10532 | 22037 ft | 378 kts | 231° |
| 2026-05-06 06:59 | 40.74114 | -2.13457 | 21286 ft | 370 kts | 254° |
| 2026-05-06 06:59 | 40.73744 | -2.16750 | 20626 ft | 367 kts | 266° |
| 2026-05-06 06:59 | 40.73638 | -2.20100 | 19982 ft | 365 kts | 269° |
| 2026-05-06 06:59 | 40.73677 | -2.23442 | 19350 ft | 364 kts | 273° |
| 2026-05-06 07:00 | 40.73955 | -2.26752 | 18688 ft | 363 kts | 278° |
| 2026-05-06 07:00 | 40.74379 | -2.30021 | 18045 ft | 361 kts | 279° |
| 2026-05-06 07:00 | 40.74820 | -2.33290 | 17343 ft | 361 kts | 280° |
| 2026-05-06 07:00 | 40.75266 | -2.36541 | 16678 ft | 360 kts | 279° |
| 2026-05-06 07:01 | 40.75672 | -2.39789 | 16040 ft | 359 kts | 279° |
| 2026-05-06 07:01 | 40.76053 | -2.43033 | 15417 ft | 357 kts | 278° |
| 2026-05-06 07:01 | 40.76438 | -2.46282 | 14820 ft | 356 kts | 278° |
| 2026-05-06 07:01 | 40.76613 | -2.49502 | 14587 ft | 344 kts | 268° |
| 2026-05-06 07:02 | 40.76395 | -2.52567 | 14654 ft | 327 kts | 262° |
| 2026-05-06 07:02 | 40.75603 | -2.55297 | 14643 ft | 318 kts | 237° |
| 2026-05-06 07:02 | 40.74131 | -2.57454 | 14276 ft | 322 kts | 225° |
| 2026-05-06 07:02 | 40.72464 | -2.59427 | 13952 ft | 322 kts | 222° |
| 2026-05-06 07:03 | 40.70751 | -2.61325 | 13493 ft | 321 kts | 221° |
| 2026-05-06 07:03 | 40.69043 | -2.63211 | 13049 ft | 319 kts | 221° |
| 2026-05-06 07:03 | 40.67351 | -2.65104 | 12610 ft | 317 kts | 223° |
| 2026-05-06 07:03 | 40.65700 | -2.67027 | 12176 ft | 316 kts | 223° |
| 2026-05-06 07:04 | 40.64060 | -2.68952 | 11914 ft | 315 kts | 223° |
| 2026-05-06 07:04 | 40.62977 | -2.70228 | 11737 ft | 315 kts | 223° |
| 2026-05-06 07:04 | 40.60817 | -2.72767 | 11382 ft | 313 kts | 223° |
| 2026-05-06 07:04 | 40.59185 | -2.74677 | 11093 ft | 313 kts | 223° |
| 2026-05-06 07:05 | 40.58110 | -2.75937 | 10911 ft | 312 kts | 223° |
| 2026-05-06 07:05 | 40.55946 | -2.78477 | 10538 ft | 311 kts | 223° |
| 2026-05-06 07:05 | 40.54874 | -2.79733 | 10359 ft | 310 kts | 223° |
| 2026-05-06 07:05 | 40.53258 | -2.81620 | 10093 ft | 310 kts | 223° |
| 2026-05-06 07:06 | 40.51652 | -2.83500 | 9951 ft | 309 kts | 223° |
| 2026-05-06 07:06 | 40.50043 | -2.85377 | 9776 ft | 309 kts | 223° |
| 2026-05-06 07:06 | 40.48443 | -2.87254 | 9633 ft | 308 kts | 223° |
| 2026-05-06 07:06 | 40.46843 | -2.89121 | 9482 ft | 307 kts | 223° |
| 2026-05-06 07:07 | 40.45249 | -2.90985 | 9326 ft | 306 kts | 223° |
| 2026-05-06 07:07 | 40.43660 | -2.92830 | 9176 ft | 305 kts | 223° |
| 2026-05-06 07:07 | 40.42096 | -2.94652 | 9041 ft | 303 kts | 223° |
| 2026-05-06 07:07 | 40.40518 | -2.96487 | 8890 ft | 303 kts | 223° |
| 2026-05-06 07:08 | 40.38943 | -2.98320 | 8728 ft | 302 kts | 223° |
| 2026-05-06 07:08 | 40.37375 | -3.00149 | 8554 ft | 301 kts | 223° |
| 2026-05-06 07:08 | 40.35802 | -3.01972 | 8407 ft | 300 kts | 223° |
| 2026-05-06 07:08 | 40.34237 | -3.03787 | 8250 ft | 300 kts | 223° |
| 2026-05-06 07:09 | 40.32673 | -3.05599 | 8101 ft | 298 kts | 223° |
| 2026-05-06 07:09 | 40.31129 | -3.07393 | 8031 ft | 294 kts | 223° |
| 2026-05-06 07:09 | 40.29608 | -3.09157 | 8003 ft | 290 kts | 223° |
| 2026-05-06 07:09 | 40.28106 | -3.10904 | 7985 ft | 289 kts | 224° |
| 2026-05-06 07:10 | 40.26981 | -3.13006 | 7859 ft | 287 kts | 251° |
| 2026-05-06 07:10 | 40.26746 | -3.15580 | 7544 ft | 284 kts | 271° |
| 2026-05-06 07:10 | 40.26892 | -3.18150 | 7113 ft | 283 kts | 280° |
| 2026-05-06 07:10 | 40.27371 | -3.20634 | 6700 ft | 280 kts | 287° |
| 2026-05-06 07:11 | 40.27983 | -3.23054 | 6272 ft | 279 kts | 289° |
| 2026-05-06 07:11 | 40.28623 | -3.25450 | 5755 ft | 278 kts | 290° |
| 2026-05-06 07:11 | 40.29262 | -3.27838 | 5350 ft | 275 kts | 290° |
| 2026-05-06 07:11 | 40.29858 | -3.30171 | 5150 ft | 265 kts | 289° |
| 2026-05-06 07:12 | 40.30412 | -3.32414 | 5063 ft | 252 kts | 289° |
| 2026-05-06 07:12 | 40.30928 | -3.34553 | 5015 ft | 242 kts | 289° |
| 2026-05-06 07:12 | 40.31425 | -3.36617 | 4988 ft | 233 kts | 289° |
| 2026-05-06 07:12 | 40.32227 | -3.38373 | 4976 ft | 222 kts | 320° |
| 2026-05-06 07:13 | 40.33545 | -3.39191 | 5016 ft | 207 kts | 349° |
| 2026-05-06 07:13 | 40.34922 | -3.39518 | 5019 ft | 196 kts | 351° |
| 2026-05-06 07:13 | 40.36238 | -3.39825 | 4991 ft | 188 kts | 342° |
| 2026-05-06 07:13 | 40.37160 | -3.40894 | 4962 ft | 177 kts | 292° |
| 2026-05-06 07:14 | 40.37144 | -3.42411 | 4941 ft | 165 kts | 246° |
| 2026-05-06 07:14 | 40.36413 | -3.43435 | 4925 ft | 147 kts | 212° |
| 2026-05-06 07:14 | 40.35713 | -3.44425 | 4908 ft | 157 kts | 251° |
| 2026-05-06 07:14 | 40.35792 | -3.45851 | 4912 ft | 166 kts | 301° |
| 2026-05-06 07:15 | 40.36716 | -3.46731 | 4934 ft | 173 kts | 352° |
| 2026-05-06 07:15 | 40.37873 | -3.46334 | 5015 ft | 180 kts | 30° |
| 2026-05-06 07:15 | 40.39112 | -3.45768 | 4744 ft | 204 kts | 7° |
| 2026-05-06 07:15 | 40.40568 | -3.46045 | 4050 ft | 223 kts | 337° |
| 2026-05-06 07:16 | 40.41812 | -3.47255 | 3614 ft | 224 kts | 314° |
| 2026-05-06 07:16 | 40.42809 | -3.48765 | 3241 ft | 210 kts | 311° |
| 2026-05-06 07:16 | 40.43822 | -3.50033 | 2912 ft | 191 kts | 322° |
| 2026-05-06 07:16 | 40.44796 | -3.51012 | 2725 ft | 162 kts | 323° |
| 2026-05-06 07:17 | 40.45625 | -3.51866 | 2471 ft | 141 kts | 322° |
| 2026-05-06 07:17 | 40.46361 | -3.52616 | 2207 ft | 133 kts | 323° |
| 2026-05-06 07:17 | 40.47119 | -3.53381 | 2096 ft | 140 kts | 323° |
| 2026-05-06 07:17 | 40.47887 | -3.54153 | 1994 ft | 138 kts | 323° |
| 2026-05-06 07:18 | 40.48571 | -3.54851 | 1979 ft | 99 kts | 322° |
| 2026-05-06 07:18 | 40.48987 | -3.55279 | 1978 ft | 45 kts | 322° |
| 2026-05-06 07:18 | 40.49187 | -3.55549 | 1983 ft | 39 kts | 299° |
| 2026-05-06 07:18 | 40.49289 | -3.55866 | 1980 ft | 36 kts | 285° |
| 2026-05-06 07:19 | 40.49255 | -3.56140 | 1981 ft | 25 kts | 204° |
| 2026-05-06 07:19 | 40.49090 | -3.56144 | 1982 ft | 23 kts | 178° |
| 2026-05-06 07:19 | 40.48929 | -3.56143 | 1978 ft | 23 kts | 181° |
| 2026-05-06 07:19 | 40.48798 | -3.56163 | 1982 ft | 16 kts | 216° |
| 2026-05-06 07:20 | 40.48769 | -3.56294 | 1982 ft | 16 kts | 271° |
| 2026-05-06 07:20 | 40.48769 | -3.56438 | 1982 ft | 16 kts | 270° |
| 2026-05-06 07:20 | 40.48768 | -3.56584 | 1982 ft | 16 kts | 270° |
| 2026-05-06 07:20 | 40.48768 | -3.56734 | 1982 ft | 17 kts | 270° |
| 2026-05-06 07:21 | 40.48768 | -3.56887 | 1982 ft | 17 kts | 270° |
| 2026-05-06 07:21 | 40.48768 | -3.57043 | 1982 ft | 17 kts | 270° |
| 2026-05-06 07:21 | 40.48768 | -3.57200 | 1982 ft | 18 kts | 270° |
| 2026-05-06 07:21 | 40.48765 | -3.57373 | 1980 ft | 20 kts | 269° |
| 2026-05-06 07:22 | 40.48766 | -3.57560 | 1980 ft | 21 kts | 270° |
| 2026-05-06 07:22 | 40.48766 | -3.57762 | 1982 ft | 23 kts | 269° |
| 2026-05-06 07:22 | 40.48825 | -3.57934 | 1981 ft | 23 kts | 349° |
| 2026-05-06 07:22 | 40.48989 | -3.57941 | 1979 ft | 24 kts | 359° |
| 2026-05-06 07:23 | 40.49162 | -3.57944 | 1982 ft | 25 kts | 1° |
| 2026-05-06 07:23 | 40.49344 | -3.57940 | 1982 ft | 27 kts | 0° |
| 2026-05-06 07:23 | 40.49506 | -3.58007 | 1980 ft | 25 kts | 294° |
| 2026-05-06 07:23 | 40.49638 | -3.58115 | 1980 ft | 22 kts | 301° |
| 2026-05-06 07:24 | 40.49651 | -3.58323 | 1979 ft | 24 kts | 270° |
| 2026-05-06 07:24 | 40.49652 | -3.58537 | 1979 ft | 19 kts | 270° |
| 2026-05-06 07:24 | 40.49714 | -3.58673 | 1981 ft | 18 kts | 304° |
| 2026-05-06 07:24 | 40.49794 | -3.58785 | 1980 ft | 18 kts | 356° |
| 2026-05-06 07:25 | 40.49850 | -3.58903 | 1981 ft | 18 kts | 271° |
| 2026-05-06 07:25 | 40.49850 | -3.59065 | 1982 ft | 9 kts | 269° |
| 2026-05-06 07:25 | 40.49849 | -3.59149 | 1982 ft | 8 kts | 258° |
| 2026-05-06 07:25 | 40.49807 | -3.59183 | 1982 ft | 8 kts | 183° |
| 2026-05-06 07:26 | 40.49789 | -3.59184 | 1979 ft | 0 kts | 182° |